KORF

Norfolk International Airport

Norfolk, Virginia, USA
KORF 182344Z 1900/1924 05006KT P6SM BKN050 FM192000 13011KT P6SM BKN025 FM192300 15012KT P6SM OVC010
Issued Valid From Valid To
Jan-18 @ 23:44 UTC
(3 hours ago)
Jan-19 @ 00:00 UTC
(2 hours ago)
Jan-20 @ 00:00 UTC
(in 22 hours)
Jan-19 @ 00:00 to Jan-19 @ 20:00
KORF 182344Z 1900/1924 05006KT P6SM BKN050
Wind Visibility Clouds
50° at 6 knots Greater than 6 miles
  • Broken at 5,000' AGL
From Jan-19 @ 20:00 to Jan-19 @ 23:00
FM192000 13011KT P6SM BKN025
Wind Visibility Clouds
130° at 11 knots Greater than 6 miles
  • Broken at 2,500' AGL
From Jan-19 @ 23:00 to Jan-20 @ 00:00
FM192300 15012KT P6SM OVC010
Wind Visibility Clouds
150° at 12 knots Greater than 6 miles
  • Overcast at 1,000' AGL
KORF 182344Z 1900/1924 05006KT P6SM BKN050 FM192000 13011KT P6SM BKN025 FM192300 15012KT P6SM OVC010
Issued Jan-18 @ 23:44 UTC
(3 hours ago)
Valid From Jan-19 @ 00:00 UTC
(2 hours ago)
Valid To Jan-20 @ 00:00 UTC
(in 22 hours)
Jan-19 @ 00:00 - Jan-19 @ 20:00
Wind Visibility
50° at 6 knots Greater than 6 miles
Clouds
  • Broken at 5,000' AGL
From Jan-19 @ 20:00 - Jan-19 @ 23:00
Wind Visibility
130° at 11 knots Greater than 6 miles
Clouds
  • Broken at 2,500' AGL
From Jan-19 @ 23:00 - Jan-20 @ 00:00
Wind Visibility
150° at 12 knots Greater than 6 miles
Clouds
  • Overcast at 1,000' AGL